sensor_id;sensor_type;location;lat;lon;timestamp;P1;durP1;ratioP1;P2;durP2;ratioP2
19560;SDS011;9927;47.792;10.616;2023-12-04T04:02:22;12.67;;;11.47;;
19560;SDS011;9927;47.792;10.616;2023-12-04T04:04:49;12.60;;;11.70;;
19560;SDS011;9927;47.792;10.616;2023-12-04T04:07:17;11.87;;;11.07;;
19560;SDS011;9927;47.792;10.616;2023-12-04T04:09:44;12.00;;;11.10;;
19560;SDS011;9927;47.792;10.616;2023-12-04T04:12:11;11.50;;;10.33;;
19560;SDS011;9927;47.792;10.616;2023-12-04T04:14:39;10.60;;;9.80;;
19560;SDS011;9927;47.792;10.616;2023-12-04T04:17:06;11.13;;;10.30;;
19560;SDS011;9927;47.792;10.616;2023-12-04T04:19:33;11.93;;;10.90;;
19560;SDS011;9927;47.792;10.616;2023-12-04T04:22:01;11.17;;;10.17;;
19560;SDS011;9927;47.792;10.616;2023-12-04T04:24:29;10.40;;;9.53;;
19560;SDS011;9927;47.792;10.616;2023-12-04T04:26:57;10.50;;;9.70;;
19560;SDS011;9927;47.792;10.616;2023-12-04T04:29:24;11.60;;;10.07;;
19560;SDS011;9927;47.792;10.616;2023-12-04T04:31:51;11.60;;;10.70;;
19560;SDS011;9927;47.792;10.616;2023-12-04T04:34:19;10.87;;;10.07;;
19560;SDS011;9927;47.792;10.616;2023-12-04T04:36:47;12.13;;;11.07;;
19560;SDS011;9927;47.792;10.616;2023-12-04T04:39:15;11.10;;;10.40;;
19560;SDS011;9927;47.792;10.616;2023-12-04T04:41:42;11.20;;;10.23;;
19560;SDS011;9927;47.792;10.616;2023-12-04T04:44:10;10.37;;;9.73;;
19560;SDS011;9927;47.792;10.616;2023-12-04T04:46:37;10.10;;;9.50;;
19560;SDS011;9927;47.792;10.616;2023-12-04T04:49:05;9.97;;;9.27;;
19560;SDS011;9927;47.792;10.616;2023-12-04T04:51:35;10.27;;;9.57;;
19560;SDS011;9927;47.792;10.616;2023-12-04T04:54:02;9.60;;;9.13;;
19560;SDS011;9927;47.792;10.616;2023-12-04T04:56:30;10.00;;;9.30;;
19560;SDS011;9927;47.792;10.616;2023-12-04T04:58:57;9.43;;;8.83;;
19560;SDS011;9927;47.792;10.616;2023-12-04T05:01:25;10.70;;;10.00;;
19560;SDS011;9927;47.792;10.616;2023-12-04T05:03:52;10.20;;;9.60;;
19560;SDS011;9927;47.792;10.616;2023-12-04T05:06:19;10.90;;;10.00;;
19560;SDS011;9927;47.792;10.616;2023-12-04T05:08:49;9.53;;;8.93;;
19560;SDS011;9927;47.792;10.616;2023-12-04T05:11:19;10.37;;;9.70;;
19560;SDS011;9927;47.792;10.616;2023-12-04T05:13:46;9.93;;;9.23;;
19560;SDS011;9927;47.792;10.616;2023-12-04T05:16:14;10.63;;;9.90;;
19560;SDS011;9927;47.792;10.616;2023-12-04T05:18:41;11.20;;;10.17;;
19560;SDS011;9927;47.792;10.616;2023-12-04T05:21:09;10.73;;;10.00;;
19560;SDS011;9927;47.792;10.616;2023-12-04T05:23:37;9.80;;;8.97;;
19560;SDS011;9927;47.792;10.616;2023-12-04T05:26:05;9.53;;;8.83;;
19560;SDS011;9927;47.792;10.616;2023-12-04T05:28:33;10.17;;;9.57;;
19560;SDS011;9927;47.792;10.616;2023-12-04T05:31:01;10.80;;;9.90;;
19560;SDS011;9927;47.792;10.616;2023-12-04T05:33:28;9.63;;;9.03;;
19560;SDS011;9927;47.792;10.616;2023-12-04T05:35:56;10.17;;;9.47;;
19560;SDS011;9927;47.792;10.616;2023-12-04T05:38:23;10.60;;;9.73;;
19560;SDS011;9927;47.792;10.616;2023-12-04T05:40:50;10.67;;;9.90;;
19560;SDS011;9927;47.792;10.616;2023-12-04T05:43:18;11.03;;;10.20;;
19560;SDS011;9927;47.792;10.616;2023-12-04T05:45:45;10.50;;;9.80;;
19560;SDS011;9927;47.792;10.616;2023-12-04T05:48:15;11.00;;;10.20;;
19560;SDS011;9927;47.792;10.616;2023-12-04T05:50:42;10.73;;;10.03;;
19560;SDS011;9927;47.792;10.616;2023-12-04T05:53:10;11.80;;;10.87;;
19560;SDS011;9927;47.792;10.616;2023-12-04T05:55:38;17.17;;;13.20;;
19560;SDS011;9927;47.792;10.616;2023-12-04T05:58:05;13.70;;;12.20;;
19560;SDS011;9927;47.792;10.616;2023-12-04T06:00:32;12.40;;;11.20;;
19560;SDS011;9927;47.792;10.616;2023-12-04T06:02:59;11.47;;;10.40;;
19560;SDS011;9927;47.792;10.616;2023-12-04T06:05:27;12.07;;;11.07;;
19560;SDS011;9927;47.792;10.616;2023-12-04T06:07:55;13.40;;;12.10;;
19560;SDS011;9927;47.792;10.616;2023-12-04T06:10:22;16.83;;;13.00;;
19560;SDS011;9927;47.792;10.616;2023-12-04T06:12:49;19.57;;;13.03;;
19560;SDS011;9927;47.792;10.616;2023-12-04T06:15:16;15.23;;;12.53;;
19560;SDS011;9927;47.792;10.616;2023-12-04T06:17:44;13.83;;;12.40;;
19560;SDS011;9927;47.792;10.616;2023-12-04T06:20:14;13.43;;;11.77;;
19560;SDS011;9927;47.792;10.616;2023-12-04T06:22:41;12.87;;;11.57;;
19560;SDS011;9927;47.792;10.616;2023-12-04T06:25:09;15.20;;;12.23;;
19560;SDS011;9927;47.792;10.616;2023-12-04T06:27:37;13.67;;;11.77;;
19560;SDS011;9927;47.792;10.616;2023-12-04T06:30:06;14.90;;;12.03;;
19560;SDS011;9927;47.792;10.616;2023-12-04T06:32:33;17.23;;;13.30;;
19560;SDS011;9927;47.792;10.616;2023-12-04T06:35:01;14.30;;;11.80;;
19560;SDS011;9927;47.792;10.616;2023-12-04T06:37:30;12.83;;;11.67;;
19560;SDS011;9927;47.792;10.616;2023-12-04T06:39:59;12.60;;;11.30;;
19560;SDS011;9927;47.792;10.616;2023-12-04T06:42:29;12.50;;;11.17;;
19560;SDS011;9927;47.792;10.616;2023-12-04T06:44:56;15.70;;;12.37;;
19560;SDS011;9927;47.792;10.616;2023-12-04T06:47:24;12.77;;;11.47;;
19560;SDS011;9927;47.792;10.616;2023-12-04T06:49:51;14.57;;;12.53;;
19560;SDS011;9927;47.792;10.616;2023-12-04T06:52:19;12.70;;;11.50;;
19560;SDS011;9927;47.792;10.616;2023-12-04T06:54:46;12.13;;;10.90;;
19560;SDS011;9927;47.792;10.616;2023-12-04T06:57:13;13.13;;;11.23;;
19560;SDS011;9927;47.792;10.616;2023-12-04T06:59:41;13.43;;;11.77;;
19560;SDS011;9927;47.792;10.616;2023-12-04T07:02:09;12.93;;;10.83;;
19560;SDS011;9927;47.792;10.616;2023-12-04T07:04:36;14.73;;;12.13;;
19560;SDS011;9927;47.792;10.616;2023-12-04T07:07:03;13.37;;;11.97;;
19560;SDS011;9927;47.792;10.616;2023-12-04T07:09:34;15.37;;;13.70;;
19560;SDS011;9927;47.792;10.616;2023-12-04T07:12:01;14.37;;;12.13;;
19560;SDS011;9927;47.792;10.616;2023-12-04T07:14:29;12.60;;;11.40;;
19560;SDS011;9927;47.792;10.616;2023-12-04T07:16:57;13.27;;;11.97;;
19560;SDS011;9927;47.792;10.616;2023-12-04T07:19:24;12.33;;;11.13;;
19560;SDS011;9927;47.792;10.616;2023-12-04T07:21:52;13.47;;;11.30;;
19560;SDS011;9927;47.792;10.616;2023-12-04T07:24:20;12.87;;;11.47;;
19560;SDS011;9927;47.792;10.616;2023-12-04T07:26:47;13.30;;;11.93;;
19560;SDS011;9927;47.792;10.616;2023-12-04T07:29:14;13.20;;;11.80;;
19560;SDS011;9927;47.792;10.616;2023-12-04T07:31:41;12.27;;;11.17;;
19560;SDS011;9927;47.792;10.616;2023-12-04T07:34:08;13.33;;;12.03;;
19560;SDS011;9927;47.792;10.616;2023-12-04T07:36:36;14.07;;;12.67;;
19560;SDS011;9927;47.792;10.616;2023-12-04T07:39:05;15.10;;;13.50;;
19560;SDS011;9927;47.792;10.616;2023-12-04T07:41:35;13.53;;;12.20;;
19560;SDS011;9927;47.792;10.616;2023-12-04T07:44:03;15.03;;;12.70;;
19560;SDS011;9927;47.792;10.616;2023-12-04T07:46:30;18.23;;;14.17;;
19560;SDS011;9927;47.792;10.616;2023-12-04T07:48:57;18.43;;;14.03;;
19560;SDS011;9927;47.792;10.616;2023-12-04T07:51:25;14.73;;;13.03;;
19560;SDS011;9927;47.792;10.616;2023-12-04T07:53:52;14.60;;;12.87;;
19560;SDS011;9927;47.792;10.616;2023-12-04T07:56:20;16.47;;;13.43;;
19560;SDS011;9927;47.792;10.616;2023-12-04T07:58:47;13.80;;;12.40;;
19560;SDS011;9927;47.792;10.616;2023-12-04T08:01:14;14.10;;;12.73;;
19560;SDS011;9927;47.792;10.616;2023-12-04T08:03:42;14.10;;;12.60;;
19560;SDS011;9927;47.792;10.616;2023-12-04T08:06:10;16.23;;;13.77;;
19560;SDS011;9927;47.792;10.616;2023-12-04T08:08:37;12.57;;;11.33;;
19560;SDS011;9927;47.792;10.616;2023-12-04T08:11:05;15.30;;;12.33;;
19560;SDS011;9927;47.792;10.616;2023-12-04T08:13:32;15.63;;;12.83;;
19560;SDS011;9927;47.792;10.616;2023-12-04T08:15:59;15.67;;;12.90;;
19560;SDS011;9927;47.792;10.616;2023-12-04T08:18:27;16.07;;;13.43;;
19560;SDS011;9927;47.792;10.616;2023-12-04T08:20:54;16.93;;;13.50;;
19560;SDS011;9927;47.792;10.616;2023-12-04T08:23:22;14.60;;;12.83;;
19560;SDS011;9927;47.792;10.616;2023-12-04T08:25:49;13.70;;;12.23;;
19560;SDS011;9927;47.792;10.616;2023-12-04T08:28:16;15.53;;;12.63;;
19560;SDS011;9927;47.792;10.616;2023-12-04T08:30:44;12.60;;;11.40;;
19560;SDS011;9927;47.792;10.616;2023-12-04T08:33:11;19.83;;;14.97;;
19560;SDS011;9927;47.792;10.616;2023-12-04T08:35:38;15.37;;;12.97;;
19560;SDS011;9927;47.792;10.616;2023-12-04T08:38:06;15.93;;;13.03;;
19560;SDS011;9927;47.792;10.616;2023-12-04T08:40:33;15.63;;;12.50;;
19560;SDS011;9927;47.792;10.616;2023-12-04T08:43:00;12.40;;;10.97;;
19560;SDS011;9927;47.792;10.616;2023-12-04T08:45:28;13.63;;;11.83;;
19560;SDS011;9927;47.792;10.616;2023-12-04T08:47:55;12.33;;;11.03;;
19560;SDS011;9927;47.792;10.616;2023-12-04T08:50:22;16.07;;;12.10;;
19560;SDS011;9927;47.792;10.616;2023-12-04T08:52:51;17.73;;;14.70;;
19560;SDS011;9927;47.792;10.616;2023-12-04T08:55:19;22.93;;;14.90;;
19560;SDS011;9927;47.792;10.616;2023-12-04T08:57:46;15.20;;;12.67;;
19560;SDS011;9927;47.792;10.616;2023-12-04T09:00:13;13.97;;;12.57;;
19560;SDS011;9927;47.792;10.616;2023-12-04T09:02:41;19.00;;;14.13;;
19560;SDS011;9927;47.792;10.616;2023-12-04T09:05:15;16.37;;;13.80;;
19560;SDS011;9927;47.792;10.616;2023-12-04T09:07:43;15.67;;;13.03;;
19560;SDS011;9927;47.792;10.616;2023-12-04T09:10:13;16.10;;;13.33;;
19560;SDS011;9927;47.792;10.616;2023-12-04T09:13:00;19.17;;;13.67;;
19560;SDS011;9927;47.792;10.616;2023-12-04T09:15:27;16.73;;;13.83;;
19560;SDS011;9927;47.792;10.616;2023-12-04T09:17:55;16.07;;;12.90;;
19560;SDS011;9927;47.792;10.616;2023-12-04T09:20:23;14.47;;;11.67;;
19560;SDS011;9927;47.792;10.616;2023-12-04T09:22:50;17.07;;;13.77;;
19560;SDS011;9927;47.792;10.616;2023-12-04T09:25:23;13.83;;;12.37;;
19560;SDS011;9927;47.792;10.616;2023-12-04T09:27:50;12.73;;;11.43;;
19560;SDS011;9927;47.792;10.616;2023-12-04T09:30:17;14.43;;;12.10;;
19560;SDS011;9927;47.792;10.616;2023-12-04T09:32:45;14.00;;;12.23;;
19560;SDS011;9927;47.792;10.616;2023-12-04T09:35:13;16.80;;;13.63;;
19560;SDS011;9927;47.792;10.616;2023-12-04T09:37:41;17.77;;;14.13;;
19560;SDS011;9927;47.792;10.616;2023-12-04T09:40:09;19.47;;;15.07;;
19560;SDS011;9927;47.792;10.616;2023-12-04T09:42:44;17.50;;;14.67;;
19560;SDS011;9927;47.792;10.616;2023-12-04T09:45:12;17.70;;;13.77;;
19560;SDS011;9927;47.792;10.616;2023-12-04T09:47:39;17.30;;;13.50;;
19560;SDS011;9927;47.792;10.616;2023-12-04T09:50:08;15.77;;;13.10;;
19560;SDS011;9927;47.792;10.616;2023-12-04T09:52:37;18.43;;;13.43;;
19560;SDS011;9927;47.792;10.616;2023-12-04T09:55:05;16.27;;;14.57;;
19560;SDS011;9927;47.792;10.616;2023-12-04T09:57:32;17.13;;;13.27;;
19560;SDS011;9927;47.792;10.616;2023-12-04T10:00:02;23.83;;;13.50;;
19560;SDS011;9927;47.792;10.616;2023-12-04T10:02:31;15.87;;;13.20;;
19560;SDS011;9927;47.792;10.616;2023-12-04T10:04:59;17.40;;;14.13;;
19560;SDS011;9927;47.792;10.616;2023-12-04T10:07:26;17.47;;;14.60;;
19560;SDS011;9927;47.792;10.616;2023-12-04T10:09:54;23.13;;;17.30;;
19560;SDS011;9927;47.792;10.616;2023-12-04T10:12:21;19.77;;;16.13;;
19560;SDS011;9927;47.792;10.616;2023-12-04T10:15:04;21.27;;;17.20;;
19560;SDS011;9927;47.792;10.616;2023-12-04T10:17:37;22.27;;;17.20;;
19560;SDS011;9927;47.792;10.616;2023-12-04T10:20:09;20.97;;;17.33;;
19560;SDS011;9927;47.792;10.616;2023-12-04T10:25:22;18.43;;;14.50;;
19560;SDS011;9927;47.792;10.616;2023-12-04T10:28:10;16.03;;;12.47;;
19560;SDS011;9927;47.792;10.616;2023-12-04T10:30:39;10.87;;;9.87;;
19560;SDS011;9927;47.792;10.616;2023-12-04T10:33:07;11.37;;;10.27;;
19560;SDS011;9927;47.792;10.616;2023-12-04T10:35:35;10.60;;;9.50;;
19560;SDS011;9927;47.792;10.616;2023-12-04T10:38:04;10.67;;;9.37;;
19560;SDS011;9927;47.792;10.616;2023-12-04T10:40:33;9.43;;;8.50;;
19560;SDS011;9927;47.792;10.616;2023-12-04T10:43:25;10.80;;;9.30;;
19560;SDS011;9927;47.792;10.616;2023-12-04T10:45:53;9.90;;;8.90;;
19560;SDS011;9927;47.792;10.616;2023-12-04T10:48:21;9.57;;;8.67;;
19560;SDS011;9927;47.792;10.616;2023-12-04T10:50:49;10.93;;;9.23;;
19560;SDS011;9927;47.792;10.616;2023-12-04T10:53:17;9.30;;;8.50;;
19560;SDS011;9927;47.792;10.616;2023-12-04T10:55:44;12.37;;;9.77;;
19560;SDS011;9927;47.792;10.616;2023-12-04T10:58:20;11.83;;;10.20;;
19560;SDS011;9927;47.792;10.616;2023-12-04T11:00:52;21.30;;;11.93;;
19560;SDS011;9927;47.792;10.616;2023-12-04T11:04:16;13.27;;;10.60;;
19560;SDS011;9927;47.792;10.616;2023-12-04T11:06:46;13.97;;;11.07;;
19560;SDS011;9927;47.792;10.616;2023-12-04T11:09:17;14.10;;;10.60;;
19560;SDS011;9927;47.792;10.616;2023-12-04T11:11:51;10.27;;;9.33;;
19560;SDS011;9927;47.792;10.616;2023-12-04T11:14:27;10.43;;;9.50;;
19560;SDS011;9927;47.792;10.616;2023-12-04T11:17:02;11.77;;;9.63;;
19560;SDS011;9927;47.792;10.616;2023-12-04T11:19:35;10.00;;;9.10;;
19560;SDS011;9927;47.792;10.616;2023-12-04T11:22:08;12.80;;;9.50;;
19560;SDS011;9927;47.792;10.616;2023-12-04T11:24:36;10.80;;;9.80;;
19560;SDS011;9927;47.792;10.616;2023-12-04T11:27:05;9.83;;;8.93;;
19560;SDS011;9927;47.792;10.616;2023-12-04T11:29:33;9.57;;;8.57;;
19560;SDS011;9927;47.792;10.616;2023-12-04T11:32:01;12.33;;;9.90;;
19560;SDS011;9927;47.792;10.616;2023-12-04T11:34:35;11.83;;;10.37;;
19560;SDS011;9927;47.792;10.616;2023-12-04T11:37:03;16.90;;;12.60;;
19560;SDS011;9927;47.792;10.616;2023-12-04T11:39:33;14.30;;;12.73;;
19560;SDS011;9927;47.792;10.616;2023-12-04T11:42:02;15.17;;;12.40;;
19560;SDS011;9927;47.792;10.616;2023-12-04T11:44:33;12.73;;;11.30;;
19560;SDS011;9927;47.792;10.616;2023-12-04T11:47:07;13.87;;;11.03;;
19560;SDS011;9927;47.792;10.616;2023-12-04T11:49:35;11.67;;;10.60;;
19560;SDS011;9927;47.792;10.616;2023-12-04T11:52:03;11.80;;;10.67;;
19560;SDS011;9927;47.792;10.616;2023-12-04T11:57:27;14.77;;;12.13;;
19560;SDS011;9927;47.792;10.616;2023-12-04T12:02:59;10.00;;;9.00;;
19560;SDS011;9927;47.792;10.616;2023-12-04T12:05:48;54.43;;;33.17;;
19560;SDS011;9927;47.792;10.616;2023-12-04T12:08:18;63.77;;;35.10;;
19560;SDS011;9927;47.792;10.616;2023-12-04T12:10:46;46.20;;;28.63;;
19560;SDS011;9927;47.792;10.616;2023-12-04T12:13:14;46.53;;;24.87;;
19560;SDS011;9927;47.792;10.616;2023-12-04T12:15:42;48.83;;;26.30;;
19560;SDS011;9927;47.792;10.616;2023-12-04T12:18:09;31.30;;;19.50;;
19560;SDS011;9927;47.792;10.616;2023-12-04T12:20:38;26.77;;;17.77;;
19560;SDS011;9927;47.792;10.616;2023-12-04T12:23:09;18.07;;;14.13;;
19560;SDS011;9927;47.792;10.616;2023-12-04T12:25:37;18.13;;;12.70;;
19560;SDS011;9927;47.792;10.616;2023-12-04T12:28:05;16.07;;;12.00;;
19560;SDS011;9927;47.792;10.616;2023-12-04T12:30:38;14.20;;;11.43;;
19560;SDS011;9927;47.792;10.616;2023-12-04T12:33:05;13.63;;;11.30;;
19560;SDS011;9927;47.792;10.616;2023-12-04T12:35:35;15.50;;;11.37;;
19560;SDS011;9927;47.792;10.616;2023-12-04T12:38:09;12.03;;;10.33;;
19560;SDS011;9927;47.792;10.616;2023-12-04T12:40:36;10.30;;;9.17;;
19560;SDS011;9927;47.792;10.616;2023-12-04T12:43:07;11.13;;;9.27;;
19560;SDS011;9927;47.792;10.616;2023-12-04T12:45:44;11.07;;;9.87;;
19560;SDS011;9927;47.792;10.616;2023-12-04T12:48:15;17.43;;;11.30;;
19560;SDS011;9927;47.792;10.616;2023-12-04T12:50:58;13.97;;;11.30;;
19560;SDS011;9927;47.792;10.616;2023-12-04T12:53:25;15.50;;;12.97;;
19560;SDS011;9927;47.792;10.616;2023-12-04T12:55:52;20.27;;;14.27;;
19560;SDS011;9927;47.792;10.616;2023-12-04T12:58:20;25.47;;;16.07;;
19560;SDS011;9927;47.792;10.616;2023-12-04T13:00:47;19.50;;;15.03;;
19560;SDS011;9927;47.792;10.616;2023-12-04T13:03:18;20.17;;;15.57;;
19560;SDS011;9927;47.792;10.616;2023-12-04T13:05:46;22.57;;;17.00;;
19560;SDS011;9927;47.792;10.616;2023-12-04T13:08:14;19.53;;;16.07;;
19560;SDS011;9927;47.792;10.616;2023-12-04T13:10:42;19.67;;;15.93;;
19560;SDS011;9927;47.792;10.616;2023-12-04T13:13:12;39.53;;;26.67;;
19560;SDS011;9927;47.792;10.616;2023-12-04T13:15:41;28.07;;;21.70;;
19560;SDS011;9927;47.792;10.616;2023-12-04T13:18:09;26.60;;;18.77;;
19560;SDS011;9927;47.792;10.616;2023-12-04T13:20:36;27.17;;;20.73;;
19560;SDS011;9927;47.792;10.616;2023-12-04T13:23:04;21.83;;;17.50;;
19560;SDS011;9927;47.792;10.616;2023-12-04T13:25:31;22.77;;;16.40;;
19560;SDS011;9927;47.792;10.616;2023-12-04T13:27:58;17.10;;;14.30;;
19560;SDS011;9927;47.792;10.616;2023-12-04T13:30:32;19.23;;;13.67;;
19560;SDS011;9927;47.792;10.616;2023-12-04T13:33:01;15.70;;;12.57;;
19560;SDS011;9927;47.792;10.616;2023-12-04T13:35:29;16.43;;;13.90;;
19560;SDS011;9927;47.792;10.616;2023-12-04T13:37:57;16.83;;;14.17;;
19560;SDS011;9927;47.792;10.616;2023-12-04T13:40:26;17.17;;;14.33;;
19560;SDS011;9927;47.792;10.616;2023-12-04T13:42:55;17.70;;;13.87;;
19560;SDS011;9927;47.792;10.616;2023-12-04T13:45:41;22.63;;;16.50;;
19560;SDS011;9927;47.792;10.616;2023-12-04T13:48:08;49.93;;;26.80;;
19560;SDS011;9927;47.792;10.616;2023-12-04T13:50:36;48.30;;;25.83;;
19560;SDS011;9927;47.792;10.616;2023-12-04T13:53:04;21.00;;;15.33;;
19560;SDS011;9927;47.792;10.616;2023-12-04T13:55:33;18.53;;;14.77;;
19560;SDS011;9927;47.792;10.616;2023-12-04T13:58:03;16.47;;;12.50;;
19560;SDS011;9927;47.792;10.616;2023-12-04T14:00:30;17.40;;;13.67;;
19560;SDS011;9927;47.792;10.616;2023-12-04T14:02:58;18.17;;;14.20;;
19560;SDS011;9927;47.792;10.616;2023-12-04T14:05:33;20.23;;;15.07;;
19560;SDS011;9927;47.792;10.616;2023-12-04T14:08:02;16.13;;;13.17;;
19560;SDS011;9927;47.792;10.616;2023-12-04T14:10:31;18.70;;;14.10;;
19560;SDS011;9927;47.792;10.616;2023-12-04T14:12:59;16.53;;;13.87;;
19560;SDS011;9927;47.792;10.616;2023-12-04T14:15:27;19.07;;;13.40;;
19560;SDS011;9927;47.792;10.616;2023-12-04T14:17:54;20.87;;;14.67;;
19560;SDS011;9927;47.792;10.616;2023-12-04T14:20:22;19.10;;;14.47;;
19560;SDS011;9927;47.792;10.616;2023-12-04T14:22:50;15.77;;;13.67;;
19560;SDS011;9927;47.792;10.616;2023-12-04T14:25:17;15.83;;;13.53;;
19560;SDS011;9927;47.792;10.616;2023-12-04T14:27:45;15.63;;;13.00;;
19560;SDS011;9927;47.792;10.616;2023-12-04T14:30:12;14.10;;;12.00;;
19560;SDS011;9927;47.792;10.616;2023-12-04T14:32:39;14.57;;;12.17;;
19560;SDS011;9927;47.792;10.616;2023-12-04T14:35:14;18.33;;;13.83;;
19560;SDS011;9927;47.792;10.616;2023-12-04T14:37:42;20.80;;;15.57;;
19560;SDS011;9927;47.792;10.616;2023-12-04T14:40:11;17.77;;;14.30;;
19560;SDS011;9927;47.792;10.616;2023-12-04T14:42:40;14.57;;;12.30;;
19560;SDS011;9927;47.792;10.616;2023-12-04T14:45:23;13.57;;;11.67;;
19560;SDS011;9927;47.792;10.616;2023-12-04T14:47:50;16.20;;;13.43;;
19560;SDS011;9927;47.792;10.616;2023-12-04T14:50:59;14.60;;;12.20;;
19560;SDS011;9927;47.792;10.616;2023-12-04T14:53:28;24.27;;;16.80;;
19560;SDS011;9927;47.792;10.616;2023-12-04T14:55:59;26.60;;;19.67;;
19560;SDS011;9927;47.792;10.616;2023-12-04T14:58:58;26.23;;;18.70;;
19560;SDS011;9927;47.792;10.616;2023-12-04T15:02:01;24.70;;;19.27;;
19560;SDS011;9927;47.792;10.616;2023-12-04T15:04:45;21.67;;;17.80;;
19560;SDS011;9927;47.792;10.616;2023-12-04T15:08:30;24.43;;;17.23;;
19560;SDS011;9927;47.792;10.616;2023-12-04T15:11:21;24.43;;;17.80;;
19560;SDS011;9927;47.792;10.616;2023-12-04T15:14:56;27.63;;;18.13;;
19560;SDS011;9927;47.792;10.616;2023-12-04T15:17:43;22.87;;;18.30;;
19560;SDS011;9927;47.792;10.616;2023-12-04T15:20:44;21.90;;;17.67;;
19560;SDS011;9927;47.792;10.616;2023-12-04T15:23:11;27.83;;;19.90;;
19560;SDS011;9927;47.792;10.616;2023-12-04T15:25:39;27.33;;;21.67;;
19560;SDS011;9927;47.792;10.616;2023-12-04T15:28:18;24.20;;;18.47;;
19560;SDS011;9927;47.792;10.616;2023-12-04T15:30:58;24.23;;;19.07;;
19560;SDS011;9927;47.792;10.616;2023-12-04T15:33:42;25.13;;;19.83;;
19560;SDS011;9927;47.792;10.616;2023-12-04T15:36:10;28.03;;;21.13;;
19560;SDS011;9927;47.792;10.616;2023-12-04T15:38:46;34.47;;;24.13;;
19560;SDS011;9927;47.792;10.616;2023-12-04T15:44:33;24.90;;;18.87;;
19560;SDS011;9927;47.792;10.616;2023-12-04T15:47:04;24.57;;;16.97;;
19560;SDS011;9927;47.792;10.616;2023-12-04T15:50:05;24.57;;;18.00;;
19560;SDS011;9927;47.792;10.616;2023-12-04T15:52:49;22.37;;;17.90;;
19560;SDS011;9927;47.792;10.616;2023-12-04T15:55:16;20.80;;;17.57;;
19560;SDS011;9927;47.792;10.616;2023-12-04T15:57:44;22.40;;;18.07;;
19560;SDS011;9927;47.792;10.616;2023-12-04T16:00:11;20.90;;;17.00;;
19560;SDS011;9927;47.792;10.616;2023-12-04T16:02:40;24.97;;;17.80;;
19560;SDS011;9927;47.792;10.616;2023-12-04T16:05:08;20.73;;;16.63;;
19560;SDS011;9927;47.792;10.616;2023-12-04T16:07:38;22.37;;;16.13;;
19560;SDS011;9927;47.792;10.616;2023-12-04T16:10:06;21.03;;;16.23;;
19560;SDS011;9927;47.792;10.616;2023-12-04T16:12:34;20.90;;;15.90;;
19560;SDS011;9927;47.792;10.616;2023-12-04T16:15:06;20.97;;;16.63;;
19560;SDS011;9927;47.792;10.616;2023-12-04T16:17:35;22.33;;;15.47;;
19560;SDS011;9927;47.792;10.616;2023-12-04T16:20:03;21.93;;;16.13;;
19560;SDS011;9927;47.792;10.616;2023-12-04T16:22:37;19.83;;;15.30;;
19560;SDS011;9927;47.792;10.616;2023-12-04T16:25:08;17.63;;;14.07;;
19560;SDS011;9927;47.792;10.616;2023-12-04T16:27:45;18.87;;;14.60;;
19560;SDS011;9927;47.792;10.616;2023-12-04T16:30:13;19.17;;;15.00;;
19560;SDS011;9927;47.792;10.616;2023-12-04T16:32:40;19.83;;;14.43;;
19560;SDS011;9927;47.792;10.616;2023-12-04T16:35:08;21.43;;;15.10;;
19560;SDS011;9927;47.792;10.616;2023-12-04T16:37:35;18.90;;;15.10;;
19560;SDS011;9927;47.792;10.616;2023-12-04T16:40:03;26.70;;;18.30;;
19560;SDS011;9927;47.792;10.616;2023-12-04T16:42:31;28.20;;;18.10;;
19560;SDS011;9927;47.792;10.616;2023-12-04T16:44:59;36.03;;;21.00;;
19560;SDS011;9927;47.792;10.616;2023-12-04T16:47:26;35.60;;;22.53;;
19560;SDS011;9927;47.792;10.616;2023-12-04T16:49:55;33.57;;;21.33;;
19560;SDS011;9927;47.792;10.616;2023-12-04T16:52:22;33.67;;;22.17;;
19560;SDS011;9927;47.792;10.616;2023-12-04T16:54:53;26.27;;;17.90;;
19560;SDS011;9927;47.792;10.616;2023-12-04T16:57:21;29.60;;;20.70;;
19560;SDS011;9927;47.792;10.616;2023-12-04T16:59:49;24.13;;;18.13;;
19560;SDS011;9927;47.792;10.616;2023-12-04T17:02:19;32.40;;;17.83;;
19560;SDS011;9927;47.792;10.616;2023-12-04T17:04:46;21.60;;;17.17;;
19560;SDS011;9927;47.792;10.616;2023-12-04T17:07:13;23.73;;;18.53;;
19560;SDS011;9927;47.792;10.616;2023-12-04T17:09:41;25.43;;;19.37;;
19560;SDS011;9927;47.792;10.616;2023-12-04T17:12:08;45.03;;;31.70;;
19560;SDS011;9927;47.792;10.616;2023-12-04T17:14:35;33.50;;;24.00;;
19560;SDS011;9927;47.792;10.616;2023-12-04T17:17:03;37.87;;;27.07;;
19560;SDS011;9927;47.792;10.616;2023-12-04T17:19:30;51.07;;;41.27;;
19560;SDS011;9927;47.792;10.616;2023-12-04T17:21:58;37.37;;;32.00;;
19560;SDS011;9927;47.792;10.616;2023-12-04T17:24:26;24.30;;;20.30;;
19560;SDS011;9927;47.792;10.616;2023-12-04T17:26:53;21.07;;;17.90;;
19560;SDS011;9927;47.792;10.616;2023-12-04T17:29:20;22.83;;;17.90;;
19560;SDS011;9927;47.792;10.616;2023-12-04T17:31:49;25.33;;;18.97;;
19560;SDS011;9927;47.792;10.616;2023-12-04T17:34:17;27.10;;;20.17;;
19560;SDS011;9927;47.792;10.616;2023-12-04T17:36:45;33.37;;;23.80;;
19560;SDS011;9927;47.792;10.616;2023-12-04T17:39:14;37.30;;;25.20;;
19560;SDS011;9927;47.792;10.616;2023-12-04T17:41:44;30.90;;;22.20;;
19560;SDS011;9927;47.792;10.616;2023-12-04T17:44:14;41.13;;;28.20;;
19560;SDS011;9927;47.792;10.616;2023-12-04T17:46:41;54.20;;;33.63;;
19560;SDS011;9927;47.792;10.616;2023-12-04T17:49:08;46.57;;;31.67;;
19560;SDS011;9927;47.792;10.616;2023-12-04T17:51:37;52.90;;;34.13;;
19560;SDS011;9927;47.792;10.616;2023-12-04T17:54:04;54.13;;;34.07;;
19560;SDS011;9927;47.792;10.616;2023-12-04T17:56:31;58.20;;;33.30;;
19560;SDS011;9927;47.792;10.616;2023-12-04T17:59:00;62.83;;;37.23;;
19560;SDS011;9927;47.792;10.616;2023-12-04T18:01:29;58.87;;;36.53;;
19560;SDS011;9927;47.792;10.616;2023-12-04T18:03:57;57.60;;;35.37;;
19560;SDS011;9927;47.792;10.616;2023-12-04T18:06:26;66.23;;;39.03;;
19560;SDS011;9927;47.792;10.616;2023-12-04T18:08:55;53.00;;;33.50;;
19560;SDS011;9927;47.792;10.616;2023-12-04T18:11:22;46.67;;;30.13;;
19560;SDS011;9927;47.792;10.616;2023-12-04T18:13:50;39.53;;;26.47;;
19560;SDS011;9927;47.792;10.616;2023-12-04T18:16:20;42.70;;;28.30;;
19560;SDS011;9927;47.792;10.616;2023-12-04T18:18:48;50.93;;;32.80;;
19560;SDS011;9927;47.792;10.616;2023-12-04T18:21:16;40.37;;;28.30;;
19560;SDS011;9927;47.792;10.616;2023-12-04T18:23:43;39.60;;;26.97;;
19560;SDS011;9927;47.792;10.616;2023-12-04T18:26:11;42.33;;;28.47;;
19560;SDS011;9927;47.792;10.616;2023-12-04T18:28:39;37.83;;;27.90;;
19560;SDS011;9927;47.792;10.616;2023-12-04T18:31:06;32.70;;;26.07;;
19560;SDS011;9927;47.792;10.616;2023-12-04T18:33:35;36.30;;;24.53;;
19560;SDS011;9927;47.792;10.616;2023-12-04T18:36:03;47.20;;;31.80;;
19560;SDS011;9927;47.792;10.616;2023-12-04T18:38:36;48.57;;;32.37;;
19560;SDS011;9927;47.792;10.616;2023-12-04T18:41:07;44.47;;;31.13;;
19560;SDS011;9927;47.792;10.616;2023-12-04T18:43:35;47.00;;;31.50;;
19560;SDS011;9927;47.792;10.616;2023-12-04T18:46:03;33.03;;;23.80;;
19560;SDS011;9927;47.792;10.616;2023-12-04T18:48:31;31.07;;;22.73;;
19560;SDS011;9927;47.792;10.616;2023-12-04T18:51:03;28.43;;;21.17;;
19560;SDS011;9927;47.792;10.616;2023-12-04T18:53:31;28.13;;;21.57;;